createdAt,value
2023-03-02T00:02:21.759Z,-2.02
2023-03-02T00:04:58.393Z,-2.06
2023-03-02T00:07:34.637Z,-2.10
2023-03-02T00:10:04.120Z,-2.12
2023-03-02T00:12:32.862Z,-2.14
2023-03-02T00:15:01.241Z,-2.17
2023-03-02T00:17:30.227Z,-2.21
2023-03-02T00:20:12.704Z,-2.24
2023-03-02T00:22:42.876Z,-2.27
2023-03-02T00:25:12.490Z,-2.30
2023-03-02T00:27:41.837Z,-2.34
2023-03-02T00:30:12.193Z,-2.36
2023-03-02T00:32:40.962Z,-2.38
2023-03-02T00:35:09.853Z,-2.40
2023-03-02T00:37:39.012Z,-2.43
2023-03-02T00:40:11.038Z,-2.45
2023-03-02T00:42:39.774Z,-2.47
2023-03-02T00:45:09.574Z,-2.50
2023-03-02T00:47:38.581Z,-2.52
2023-03-02T00:50:07.879Z,-2.55
2023-03-02T00:52:37.913Z,-2.58
2023-03-02T00:55:09.682Z,-2.59
2023-03-02T00:57:39.029Z,-2.61
2023-03-02T01:00:09.811Z,-2.63
2023-03-02T01:02:44.615Z,-2.65
2023-03-02T01:05:17.096Z,-2.67
2023-03-02T01:07:46.497Z,-2.70
2023-03-02T01:10:15.531Z,-2.73
2023-03-02T01:12:45.872Z,-2.73
2023-03-02T01:15:14.971Z,-2.74
2023-03-02T01:17:44.187Z,-2.76
2023-03-02T01:20:13.399Z,-2.77
2023-03-02T01:22:44.026Z,-2.79
2023-03-02T01:25:13.770Z,-2.81
2023-03-02T01:27:44.550Z,-2.82
2023-03-02T01:30:13.494Z,-2.83
2023-03-02T01:32:44.194Z,-2.85
2023-03-02T01:35:13.018Z,-2.87
2023-03-02T01:37:43.545Z,-2.88
2023-03-02T01:40:13.912Z,-2.89
2023-03-02T01:42:52.643Z,-2.89
2023-03-02T01:45:54.075Z,-2.90
2023-03-02T01:48:50.932Z,-2.91
2023-03-02T01:51:28.069Z,-2.94
2023-03-02T01:54:07.169Z,-2.95
2023-03-02T01:56:37.759Z,-2.97
2023-03-02T01:59:11.222Z,-2.97
2023-03-02T02:01:42.898Z,-2.97
2023-03-02T02:04:11.948Z,-2.98
2023-03-02T02:06:44.862Z,-3.00
2023-03-02T02:09:14.772Z,-3.04
2023-03-02T02:11:44.395Z,-3.06
2023-03-02T02:14:13.779Z,-3.09
2023-03-02T02:16:42.279Z,-3.09
2023-03-02T02:19:17.989Z,-3.10
2023-03-02T02:21:46.766Z,-3.10
2023-03-02T02:24:23.167Z,-3.11
2023-03-02T02:26:55.617Z,-3.11
2023-03-02T02:29:33.341Z,-3.12
2023-03-02T02:32:07.034Z,-3.12
2023-03-02T02:34:39.933Z,-3.12
2023-03-02T02:37:16.989Z,-3.12
2023-03-02T02:39:47.265Z,-3.13
2023-03-02T02:42:19.364Z,-3.16
2023-03-02T02:44:48.356Z,-3.19
2023-03-02T02:47:21.488Z,-3.19
2023-03-02T02:49:52.278Z,-3.20
2023-03-02T02:52:25.122Z,-3.21
2023-03-02T02:54:57.398Z,-3.23
2023-03-02T02:57:27.169Z,-3.25
2023-03-02T02:59:57.024Z,-3.27
2023-03-02T03:02:29.139Z,-3.29
2023-03-02T03:05:04.111Z,-3.30
2023-03-02T03:07:35.729Z,-3.32
2023-03-02T03:10:14.002Z,-3.34
2023-03-02T03:12:44.104Z,-3.36
2023-03-02T03:15:13.886Z,-3.37
2023-03-02T03:17:48.250Z,-3.38
2023-03-02T03:20:17.131Z,-3.38
2023-03-02T03:22:46.277Z,-3.40
2023-03-02T03:25:16.006Z,-3.40
2023-03-02T03:27:46.726Z,-3.41
2023-03-02T03:30:20.495Z,-3.41
2023-03-02T03:32:50.349Z,-3.42
2023-03-02T03:35:19.231Z,-3.42
2023-03-02T03:37:48.751Z,-3.43
2023-03-02T03:40:19.544Z,-3.44
2023-03-02T03:42:48.605Z,-3.44
2023-03-02T03:45:17.275Z,-3.44
2023-03-02T03:47:47.312Z,-3.44
2023-03-02T03:50:16.212Z,-3.43
2023-03-02T03:52:46.108Z,-3.44
2023-03-02T03:55:19.579Z,-3.45
2023-03-02T03:57:49.834Z,-3.45
2023-03-02T04:00:19.125Z,-3.46
2023-03-02T04:02:50.813Z,-3.47
2023-03-02T04:05:23.200Z,-3.47
2023-03-02T04:07:54.257Z,-3.47
2023-03-02T04:10:24.907Z,-3.48
2023-03-02T04:12:56.719Z,-3.50
2023-03-02T04:15:26.321Z,-3.53
2023-03-02T04:17:55.290Z,-3.57
2023-03-02T04:20:25.264Z,-3.59
2023-03-02T04:22:56.838Z,-3.62
2023-03-02T04:25:27.579Z,-3.64
2023-03-02T04:28:00.839Z,-3.67
2023-03-02T04:30:33.698Z,-3.71
2023-03-02T04:33:02.522Z,-3.73
2023-03-02T04:35:31.966Z,-3.75
2023-03-02T04:38:01.906Z,-3.75
2023-03-02T04:40:30.871Z,-3.75
2023-03-02T04:43:00.463Z,-3.75
2023-03-02T04:45:29.172Z,-3.74
2023-03-02T04:47:59.678Z,-3.73
2023-03-02T04:50:34.844Z,-3.72
2023-03-02T04:53:03.309Z,-3.70
2023-03-02T04:55:33.193Z,-3.65
2023-03-02T04:58:01.902Z,-3.61
2023-03-02T05:00:34.222Z,-3.58
2023-03-02T05:03:03.118Z,-3.53
2023-03-02T05:05:32.247Z,-3.47
2023-03-02T05:08:01.694Z,-3.42
2023-03-02T05:10:32.038Z,-3.35
2023-03-02T05:13:05.323Z,-3.28
2023-03-02T05:15:38.890Z,-3.21
2023-03-02T05:18:08.896Z,-3.12
2023-03-02T05:20:38.139Z,-3.06
2023-03-02T05:23:08.236Z,-2.98
2023-03-02T05:25:37.524Z,-2.91
2023-03-02T05:28:07.087Z,-2.81
2023-03-02T05:30:38.535Z,-2.72
2023-03-02T05:33:06.985Z,-2.61
2023-03-02T05:35:36.426Z,-2.51
2023-03-02T05:38:05.685Z,-2.40
2023-03-02T05:40:34.855Z,-2.30
2023-03-02T05:43:06.568Z,-2.19
2023-03-02T05:45:36.774Z,-2.08
2023-03-02T05:48:05.280Z,-1.97
2023-03-02T05:50:33.333Z,-1.87
2023-03-02T05:53:02.740Z,-1.76
2023-03-02T05:55:31.866Z,-1.63
2023-03-02T05:58:00.347Z,-1.52
2023-03-02T06:00:33.068Z,-1.40
2023-03-02T06:03:02.554Z,-1.30
2023-03-02T06:05:31.284Z,-1.18
2023-03-02T06:07:59.836Z,-1.07
2023-03-02T06:10:29.381Z,-0.96
2023-03-02T06:12:58.028Z,-0.85
2023-03-02T06:15:29.839Z,-0.72
2023-03-02T06:17:58.396Z,-0.59
2023-03-02T06:20:27.064Z,-0.48
2023-03-02T06:22:56.725Z,-0.36
2023-03-02T06:25:24.987Z,-0.26
2023-03-02T06:27:54.047Z,-0.13
2023-03-02T06:30:24.290Z,-0.01
2023-03-02T06:32:53.556Z,0.11
2023-03-02T06:35:24.281Z,0.22
2023-03-02T06:37:53.186Z,0.35
2023-03-02T06:40:22.837Z,0.49
2023-03-02T06:42:51.642Z,0.62
2023-03-02T06:45:21.483Z,0.74
2023-03-02T06:47:50.444Z,0.83
2023-03-02T06:50:18.997Z,0.93
2023-03-02T06:52:49.128Z,1.04
2023-03-02T06:55:17.973Z,1.16
2023-03-02T06:57:47.608Z,1.28
2023-03-02T07:00:17.930Z,1.42
2023-03-02T07:02:50.233Z,1.57
2023-03-02T07:05:19.492Z,1.69
2023-03-02T07:07:53.355Z,1.77
2023-03-02T07:10:22.664Z,1.88
2023-03-02T07:12:51.287Z,1.99
2023-03-02T07:15:22.854Z,2.06
2023-03-02T07:17:51.972Z,2.08
2023-03-02T07:20:20.736Z,2.12
2023-03-02T07:22:51.145Z,2.21
2023-03-02T07:25:20.749Z,2.34
2023-03-02T07:27:50.179Z,2.48
2023-03-02T07:30:22.519Z,2.64
2023-03-02T07:32:51.328Z,2.81
2023-03-02T07:35:19.996Z,2.93
2023-03-02T07:37:49.690Z,3.01
2023-03-02T07:40:18.874Z,3.10
2023-03-02T07:42:47.866Z,3.18
2023-03-02T07:45:25.041Z,3.17
2023-03-02T07:47:54.249Z,3.18
2023-03-02T07:50:22.840Z,3.23
2023-03-02T07:52:52.408Z,3.26
2023-03-02T07:55:20.709Z,3.28
2023-03-02T07:57:50.649Z,3.33
2023-03-02T08:00:19.409Z,3.44
2023-03-02T08:02:47.716Z,3.55
2023-03-02T08:05:17.110Z,3.63
2023-03-02T08:07:47.309Z,3.69
2023-03-02T08:10:17.041Z,3.73
2023-03-02T08:12:45.653Z,3.81
2023-03-02T08:15:14.915Z,3.84
2023-03-02T08:17:51.629Z,3.93
2023-03-02T08:20:22.117Z,3.96
2023-03-02T08:22:52.516Z,3.97
2023-03-02T08:25:21.276Z,3.99
2023-03-02T08:27:50.582Z,4.07
2023-03-02T08:30:22.738Z,4.16
2023-03-02T08:32:51.289Z,4.16
2023-03-02T08:35:19.610Z,4.15
2023-03-02T08:37:49.124Z,4.22
2023-03-02T08:40:17.221Z,4.32
2023-03-02T08:42:45.542Z,4.33
2023-03-02T08:45:13.886Z,4.33
2023-03-02T08:47:43.066Z,4.33
2023-03-02T08:50:12.123Z,4.31
2023-03-02T08:52:40.881Z,4.28
2023-03-02T08:55:10.610Z,4.33
2023-03-02T08:57:41.712Z,4.32
2023-03-02T09:00:14.999Z,4.30
2023-03-02T09:02:44.159Z,4.32
2023-03-02T09:05:12.571Z,4.37
2023-03-02T09:07:41.254Z,4.48
2023-03-02T09:10:10.922Z,4.61
2023-03-02T09:12:40.965Z,4.78
2023-03-02T09:15:09.685Z,4.91
2023-03-02T09:17:42.466Z,5.04
2023-03-02T09:20:11.096Z,5.25
2023-03-02T09:22:40.107Z,5.44
2023-03-02T09:25:09.688Z,5.45
2023-03-02T09:27:38.561Z,5.43
2023-03-02T09:30:10.120Z,5.46
2023-03-02T09:32:38.756Z,5.55
2023-03-02T09:35:08.505Z,5.56
2023-03-02T09:37:39.111Z,5.55
2023-03-02T09:40:22.586Z,5.61
2023-03-02T09:43:03.962Z,5.59
2023-03-02T09:45:51.243Z,5.49
2023-03-02T09:48:38.032Z,5.38
2023-03-02T09:51:22.887Z,5.51
2023-03-02T09:54:04.356Z,5.74
2023-03-02T09:56:36.532Z,5.81
2023-03-02T09:59:18.176Z,5.89
2023-03-02T10:01:53.559Z,5.97
2023-03-02T10:04:30.111Z,6.03
2023-03-02T10:07:10.857Z,6.13
2023-03-02T10:09:39.953Z,6.23
2023-03-02T10:12:35.699Z,6.28
2023-03-02T10:15:11.045Z,6.23
2023-03-02T10:17:52.068Z,6.22
2023-03-02T10:20:43.372Z,6.28
2023-03-02T10:23:23.602Z,6.37
2023-03-02T10:26:01.799Z,6.37
2023-03-02T10:28:33.734Z,6.39
2023-03-02T10:31:10.466Z,6.42
2023-03-02T10:33:39.816Z,6.48
2023-03-02T10:36:39.109Z,6.45
2023-03-02T10:39:13.654Z,6.49
2023-03-02T10:41:52.342Z,6.64
2023-03-02T10:44:27.847Z,6.70
2023-03-02T10:46:57.514Z,6.76
2023-03-02T10:49:34.011Z,6.85
2023-03-02T10:52:14.254Z,6.80
2023-03-02T10:54:43.062Z,6.70
2023-03-02T10:57:29.203Z,6.68
2023-03-02T11:00:05.537Z,6.72
2023-03-02T11:02:37.708Z,6.80
2023-03-02T11:05:32.394Z,6.94
2023-03-02T11:08:05.063Z,7.02
2023-03-02T11:10:36.956Z,7.07
2023-03-02T11:13:33.357Z,7.14
2023-03-02T11:16:28.654Z,7.08
2023-03-02T11:18:59.606Z,7.10
2023-03-02T11:21:48.809Z,7.27
2023-03-02T11:24:21.984Z,7.37
2023-03-02T11:27:03.328Z,7.44
2023-03-02T11:29:40.740Z,7.56
2023-03-02T11:32:18.887Z,7.63
2023-03-02T11:34:59.503Z,7.52
2023-03-02T11:37:37.326Z,7.37
2023-03-02T11:40:30.692Z,7.28
2023-03-02T11:43:00.835Z,7.28
2023-03-02T11:45:35.528Z,7.33
2023-03-02T11:48:27.150Z,7.39
2023-03-02T11:51:33.379Z,7.47
2023-03-02T11:54:29.477Z,7.65
2023-03-02T11:56:58.531Z,7.76
2023-03-02T11:59:39.177Z,7.66
2023-03-02T12:02:09.499Z,7.47
2023-03-02T12:04:38.538Z,7.40
2023-03-02T12:07:17.152Z,7.37
2023-03-02T12:10:04.439Z,7.36
2023-03-02T12:12:41.140Z,7.32
2023-03-02T12:15:35.476Z,7.14
2023-03-02T12:18:35.404Z,6.94
2023-03-02T12:21:16.177Z,6.73
2023-03-02T12:23:51.189Z,6.56
2023-03-02T12:26:20.557Z,6.39
2023-03-02T12:28:57.708Z,6.20
2023-03-02T12:31:26.450Z,6.18
2023-03-02T12:33:54.951Z,6.15
2023-03-02T12:36:27.744Z,6.02
2023-03-02T12:39:06.893Z,5.81
2023-03-02T12:41:47.323Z,5.51
2023-03-02T12:44:31.809Z,5.26
2023-03-02T12:47:03.018Z,5.14
2023-03-02T12:49:45.934Z,5.07
2023-03-02T12:52:24.034Z,5.11
2023-03-02T12:55:16.893Z,5.11
2023-03-02T12:57:51.527Z,5.00
2023-03-02T13:00:23.366Z,4.97
2023-03-02T13:02:54.995Z,5.16
2023-03-02T13:05:28.985Z,5.43
2023-03-02T13:08:03.387Z,5.75
2023-03-02T13:10:44.499Z,6.10
2023-03-02T13:13:36.054Z,6.51
2023-03-02T13:16:07.076Z,6.91
2023-03-02T13:18:37.454Z,7.16
2023-03-02T13:21:06.436Z,7.51
2023-03-02T13:23:37.608Z,7.77
2023-03-02T13:26:06.346Z,7.92
2023-03-02T13:28:36.684Z,8.06
2023-03-02T13:31:22.297Z,8.06
2023-03-02T13:33:52.675Z,8.12
2023-03-02T13:36:35.705Z,8.05
2023-03-02T13:39:16.204Z,7.70
2023-03-02T13:41:59.545Z,7.42
2023-03-02T13:44:33.477Z,7.34
2023-03-02T13:47:02.638Z,7.16
2023-03-02T13:49:33.029Z,6.91
2023-03-02T13:52:08.399Z,6.69
2023-03-02T13:54:37.367Z,6.44
2023-03-02T13:57:05.972Z,6.15
2023-03-02T13:59:37.346Z,6.02
2023-03-02T14:02:24.112Z,5.99
2023-03-02T14:04:52.872Z,5.91
2023-03-02T14:07:21.634Z,5.81
2023-03-02T14:09:50.552Z,5.95
2023-03-02T14:12:25.825Z,6.41
2023-03-02T14:14:56.053Z,6.88
2023-03-02T14:17:25.441Z,6.99
2023-03-02T14:19:55.561Z,6.91
2023-03-02T14:22:26.194Z,7.11
2023-03-02T14:24:55.956Z,7.43
2023-03-02T14:27:26.046Z,7.76
2023-03-02T14:29:55.025Z,7.90
2023-03-02T14:32:23.903Z,7.90
2023-03-02T14:34:53.022Z,7.61
2023-03-02T14:37:22.521Z,7.51
2023-03-02T14:39:54.168Z,7.58
2023-03-02T14:42:23.883Z,7.75
2023-03-02T14:44:52.588Z,7.81
2023-03-02T14:47:22.111Z,7.84
2023-03-02T14:49:51.034Z,7.84
2023-03-02T14:52:27.191Z,7.98
2023-03-02T14:54:58.443Z,8.13
2023-03-02T14:57:28.656Z,8.06
2023-03-02T15:00:00.132Z,7.84
2023-03-02T15:02:29.059Z,7.53
2023-03-02T15:05:13.521Z,7.19
2023-03-02T15:07:44.417Z,7.01
2023-03-02T15:10:17.722Z,6.77
2023-03-02T15:12:45.888Z,6.37
2023-03-02T15:15:17.101Z,5.99
2023-03-02T15:17:46.054Z,5.65
2023-03-02T15:20:17.019Z,5.32
2023-03-02T15:22:47.193Z,5.01
2023-03-02T15:25:17.472Z,4.72
2023-03-02T15:27:47.124Z,4.46
2023-03-02T15:30:17.954Z,4.20
2023-03-02T15:32:48.062Z,3.98
2023-03-02T15:35:17.268Z,3.78
2023-03-02T15:37:49.334Z,3.60
2023-03-02T15:40:18.299Z,3.41
2023-03-02T15:42:46.860Z,3.22
2023-03-02T15:45:16.760Z,3.03
2023-03-02T15:47:45.433Z,2.87
2023-03-02T15:50:14.011Z,2.68
2023-03-02T15:52:43.943Z,2.52
2023-03-02T15:55:15.699Z,2.40
2023-03-02T15:57:45.108Z,2.26
2023-03-02T16:00:14.590Z,2.12
2023-03-02T16:02:43.435Z,1.96
2023-03-02T16:05:17.230Z,1.74
2023-03-02T16:07:48.587Z,1.58
2023-03-02T16:10:18.759Z,1.48
2023-03-02T16:12:47.208Z,1.40
2023-03-02T16:15:15.668Z,1.32
2023-03-02T16:17:48.539Z,1.25
2023-03-02T16:20:17.428Z,1.19
2023-03-02T16:22:46.082Z,1.12
2023-03-02T16:25:14.568Z,1.04
2023-03-02T16:27:47.567Z,0.96
2023-03-02T16:30:20.714Z,0.86
2023-03-02T16:32:50.954Z,0.76
2023-03-02T16:35:19.407Z,0.64
2023-03-02T16:37:50.192Z,0.51
2023-03-02T16:40:18.739Z,0.43
2023-03-02T16:42:47.363Z,0.36
2023-03-02T16:45:15.913Z,0.27
2023-03-02T16:47:45.047Z,0.19
2023-03-02T16:50:14.523Z,0.15
2023-03-02T16:52:42.835Z,0.11
2023-03-02T16:55:14.777Z,0.08
2023-03-02T16:57:43.206Z,0.05
2023-03-02T17:00:14.226Z,-0.00
2023-03-02T17:02:43.008Z,-0.06
2023-03-02T17:05:12.301Z,-0.12
2023-03-02T17:07:41.268Z,-0.14
2023-03-02T17:10:13.900Z,-0.16
2023-03-02T17:12:42.256Z,-0.17
2023-03-02T17:15:19.792Z,-0.20
2023-03-02T17:17:48.821Z,-0.23
2023-03-02T17:20:18.007Z,-0.25
2023-03-02T17:22:49.359Z,-0.28
2023-03-02T17:25:18.348Z,-0.29
2023-03-02T17:27:47.488Z,-0.31
2023-03-02T17:30:20.420Z,-0.34
2023-03-02T17:32:50.106Z,-0.36
2023-03-02T17:35:18.918Z,-0.39
2023-03-02T17:37:48.196Z,-0.39
2023-03-02T17:40:17.719Z,-0.41
2023-03-02T17:42:46.058Z,-0.46
2023-03-02T17:45:22.337Z,-0.49
2023-03-02T17:47:52.055Z,-0.52
2023-03-02T17:50:21.486Z,-0.55
2023-03-02T17:52:50.289Z,-0.55
2023-03-02T17:55:19.998Z,-0.56
2023-03-02T17:57:50.975Z,-0.57
2023-03-02T18:00:21.344Z,-0.60
2023-03-02T18:02:53.134Z,-0.62
2023-03-02T18:05:22.911Z,-0.64
2023-03-02T18:07:53.123Z,-0.64
2023-03-02T18:10:22.541Z,-0.62
2023-03-02T18:12:54.021Z,-0.63
2023-03-02T18:15:23.787Z,-0.65
2023-03-02T18:17:52.659Z,-0.68
2023-03-02T18:20:21.735Z,-0.74
2023-03-02T18:22:50.731Z,-0.78
2023-03-02T18:25:23.536Z,-0.83
2023-03-02T18:27:53.149Z,-0.87
2023-03-02T18:30:22.270Z,-0.91
2023-03-02T18:32:51.018Z,-0.94
2023-03-02T18:35:19.807Z,-0.98
2023-03-02T18:37:48.557Z,-1.02
2023-03-02T18:40:19.495Z,-1.05
2023-03-02T18:42:48.929Z,-1.06
2023-03-02T18:45:26.684Z,-1.06
2023-03-02T18:47:56.870Z,-1.07
2023-03-02T18:50:26.257Z,-1.08
2023-03-02T18:52:55.527Z,-1.08
2023-03-02T18:55:25.241Z,-1.13
2023-03-02T18:57:55.204Z,-1.17
2023-03-02T19:00:27.373Z,-1.21
2023-03-02T19:02:58.603Z,-1.23
2023-03-02T19:05:29.906Z,-1.27
2023-03-02T19:08:03.045Z,-1.31
2023-03-02T19:10:31.963Z,-1.36
2023-03-02T19:13:05.775Z,-1.44
2023-03-02T19:15:37.496Z,-1.53
2023-03-02T19:18:06.310Z,-1.62
2023-03-02T19:20:40.900Z,-1.67
2023-03-02T19:23:10.701Z,-1.70
2023-03-02T19:25:40.559Z,-1.71
2023-03-02T19:28:10.935Z,-1.72
2023-03-02T19:30:41.818Z,-1.71
2023-03-02T19:33:11.514Z,-1.71
2023-03-02T19:35:40.491Z,-1.72
2023-03-02T19:38:09.513Z,-1.72
2023-03-02T19:40:40.149Z,-1.73
2023-03-02T19:43:09.194Z,-1.75
2023-03-02T19:45:38.773Z,-1.76
2023-03-02T19:48:20.580Z,-1.79
2023-03-02T19:50:57.705Z,-1.83
2023-03-02T19:53:26.408Z,-1.88
2023-03-02T19:56:00.664Z,-1.92
2023-03-02T19:58:33.856Z,-1.94
2023-03-02T20:01:04.397Z,-1.95
2023-03-02T20:03:33.684Z,-1.97
2023-03-02T20:06:03.990Z,-1.98
2023-03-02T20:08:33.360Z,-1.99
2023-03-02T20:11:11.988Z,-2.00
2023-03-02T20:13:41.748Z,-2.01
2023-03-02T20:16:12.434Z,-2.02
2023-03-02T20:18:46.182Z,-2.04
2023-03-02T20:21:16.552Z,-2.07
2023-03-02T20:23:50.257Z,-2.10
2023-03-02T20:26:22.184Z,-2.13
2023-03-02T20:28:51.619Z,-2.17
2023-03-02T20:31:20.488Z,-2.19
2023-03-02T20:33:51.115Z,-2.21
2023-03-02T20:36:27.305Z,-2.24
2023-03-02T20:39:00.138Z,-2.27
2023-03-02T20:41:28.879Z,-2.31
2023-03-02T20:43:57.654Z,-2.34
2023-03-02T20:46:30.558Z,-2.35
2023-03-02T20:49:05.388Z,-2.34
2023-03-02T20:51:34.500Z,-2.33
2023-03-02T20:54:04.108Z,-2.33
2023-03-02T20:56:33.638Z,-2.35
2023-03-02T20:59:02.490Z,-2.37
2023-03-02T21:01:31.592Z,-2.41
2023-03-02T21:04:00.236Z,-2.44
2023-03-02T21:06:29.839Z,-2.46
2023-03-02T21:09:00.296Z,-2.48
2023-03-02T21:11:30.949Z,-2.49
2023-03-02T21:14:02.280Z,-2.50
2023-03-02T21:16:36.524Z,-2.49
2023-03-02T21:19:13.976Z,-2.49
2023-03-02T21:21:42.965Z,-2.50
2023-03-02T21:24:12.704Z,-2.50
2023-03-02T21:26:44.394Z,-2.52
2023-03-02T21:29:17.125Z,-2.53
2023-03-02T21:31:46.554Z,-2.54
2023-03-02T21:34:16.228Z,-2.55
2023-03-02T21:36:45.082Z,-2.55
2023-03-02T21:39:13.715Z,-2.56
2023-03-02T21:41:42.656Z,-2.59
2023-03-02T21:44:13.581Z,-2.62
2023-03-02T21:46:42.215Z,-2.65
2023-03-02T21:49:14.604Z,-2.67
2023-03-02T21:51:43.594Z,-2.67
2023-03-02T21:54:13.299Z,-2.67
2023-03-02T21:56:43.907Z,-2.68
2023-03-02T21:59:13.546Z,-2.70
2023-03-02T22:01:42.223Z,-2.72
2023-03-02T22:04:11.368Z,-2.74
2023-03-02T22:06:40.795Z,-2.75
2023-03-02T22:09:10.051Z,-2.77
2023-03-02T22:11:40.485Z,-2.80
2023-03-02T22:14:14.489Z,-2.83
2023-03-02T22:16:46.591Z,-2.86
2023-03-02T22:19:27.119Z,-2.88
2023-03-02T22:22:00.279Z,-2.89
2023-03-02T22:24:34.193Z,-2.88
2023-03-02T22:27:27.193Z,-2.88
2023-03-02T22:30:00.276Z,-2.88
2023-03-02T22:32:31.054Z,-2.90
2023-03-02T22:35:20.082Z,-2.91
2023-03-02T22:37:49.044Z,-2.90
2023-03-02T22:40:26.739Z,-2.90
2023-03-02T22:43:17.058Z,-2.88
2023-03-02T22:45:47.261Z,-2.87
2023-03-02T22:48:21.152Z,-2.86
2023-03-02T22:50:50.231Z,-2.86
2023-03-02T22:53:32.437Z,-2.86
2023-03-02T22:56:04.450Z,-2.86
2023-03-02T22:58:47.008Z,-2.88
2023-03-02T23:01:21.152Z,-2.91
2023-03-02T23:03:54.765Z,-2.95
2023-03-02T23:06:33.259Z,-2.98
2023-03-02T23:09:03.934Z,-3.00
2023-03-02T23:11:34.396Z,-3.02
2023-03-02T23:14:22.875Z,-3.03
2023-03-02T23:17:02.440Z,-3.06
2023-03-02T23:19:31.513Z,-3.07
2023-03-02T23:22:01.221Z,-3.08
2023-03-02T23:24:30.793Z,-3.07
2023-03-02T23:26:59.918Z,-3.07
2023-03-02T23:29:48.453Z,-3.06
2023-03-02T23:32:19.508Z,-3.04
2023-03-02T23:34:48.404Z,-2.99
2023-03-02T23:37:20.641Z,-2.95
2023-03-02T23:39:50.129Z,-2.91
2023-03-02T23:42:18.762Z,-2.90
2023-03-02T23:44:47.885Z,-2.89
2023-03-02T23:47:17.761Z,-2.89
2023-03-02T23:49:47.591Z,-2.88
2023-03-02T23:52:16.493Z,-2.89
2023-03-02T23:54:46.441Z,-2.91
2023-03-02T23:57:15.334Z,-2.92
2023-03-02T23:59:44.069Z,-2.93
